x

Freeport, Tx - 60 Nm South Of Freeport, Tx (42019) Wave Buoy

3:50am - Sat 30th Apr 2016 All times are CDT. -5 hours from GMT.

  • Sig Wave height 7.9ft
  • Swell Direction
  • Peak Period 8s
  • Average Period 6s
  • Wind
    18mph, 22mph gusts
  • Sea Temp 76°f
  • Air Temp 77°f
  • Sea Pressure 1003.4mb
  • Freeport, Tx - 60 Nm South Of Freeport, Tx
  • Freeport, Tx - 60 Nm South Of Freeport, Tx

More Historic Weather Station data

Upgrade to MSW Pro to gain access to the past 30 days of data for over 8000 Wavebouys and Weather Stations around the globe.

Join Pro

Comparision Forecast

View Surf forecast
   
Sat 04/30 3:50am 8ft 8s 6s 18 22 mph 1003.4mb 76f 77f
2:50am 7ft 8s 6s 16 18 mph 1003.9mb 76f 77f
1:50am 7.5ft 8s 6s 18 22 mph 1004mb 76f 77f
12:50am 7ft 8s 6s 18 22 mph 1004.1mb 76f 77f
Fri 04/29 11:50pm 8ft 8s 6s 16 20 mph 1004.5mb 76f 77f
10:50pm 7.5ft 8s 6s 18 22 mph 1004.5mb 76f 77f
9:50pm 7ft 8s 6s 20 25 mph 1004.4mb 76f 77f
8:50pm 7.5ft 8s 6s 20 25 mph 1004.4mb 76f 78f
7:50pm 7.5ft 8s 6s 18 22 mph 1004.2mb 76f 77f
6:50pm 8ft 8s 6s 20 25 mph 1003.7mb 76f 78f
5:50pm 7.5ft 7s 6s 22 27 mph 1003.6mb 76f 78f
4:50pm 7ft 8s 5s 22 27 mph 1003.8mb 76f 78f
3:50pm 7ft 8s 6s 20 25 mph 1004.8mb 76f 78f
2:50pm 8ft 8s 6s 20 27 mph 1004.9mb 76f 78f
1:50pm 7ft 8s 6s 22 27 mph 1004.9mb 76f 78f
12:50pm 7ft 8s 6s 22 29 mph 1005.5mb 76f 78f
11:50am 7ft 8s 6s 22 27 mph 1006.3mb 76f 78f
10:50am 7ft 8s 6s 18 22 mph 1006.8mb 76f 77f
9:50am 6ft 7s 5s 18 20 mph 1007mb 76f 77f
8:50am 6ft 7s 5s 20 25 mph 1007.4mb 76f 77f
7:50am 5ft 7s 5s 20 25 mph 1007.4mb 76f 77f
6:50am 5ft 6s 5s 20 25 mph 1007.1mb 76f 77f
5:50am 5ft 6s 5s 20 22 mph 1007.4mb 76f 77f
4:50am 4.5ft 5s 5s 20 27 mph 1007.3mb 76f 77f
3:50am 4ft 5s 4s 20 25 mph 1007.1mb 76f 77f
2:50am 4ft 6s 4s 16 20 mph 1007.1mb 76f 77f
1:50am 3.5ft 7s 4s 18 20 mph 1007.9mb 76f 78f
12:50am 3.5ft 7s 4s 18 20 mph 1008.1mb 76f 78f
Thu 04/28 11:50pm 3.5ft 4s 4s 16 20 mph 1008.5mb 76f 78f
10:50pm 3.5ft 7s 4s 18 22 mph 1008.2mb 76f 78f
9:50pm 3.5ft 7s 4s 18 20 mph 1008.1mb 76f 78f
8:50pm 3.5ft 7s 4s 16 20 mph 1007.5mb 76f 78f
7:50pm 3.5ft 7s 4s 18 20 mph 1007.3mb 77f 78f
6:50pm 3.5ft 7s 4s 16 18 mph 1007.1mb 77f 78f
5:50pm 3.5ft 8s 4s 18 20 mph 1006.7mb 77f 77f
4:50pm 3.5ft 8s 4s 18 22 mph 1006.9mb 77f 77f
3:50pm 3.5ft 7s 5s 18 22 mph 1007.6mb 77f 77f
2:50pm 3.5ft 7s 5s 18 22 mph 1007.9mb 77f 77f
1:50pm 3.5ft 8s 5s 13 16 mph 1008.5mb 77f 77f
12:50pm 3.5ft 8s 5s 11 13 mph 1009.2mb 77f 77f
11:50am 3.5ft 7s 5s 9 11 mph 1009.9mb 76f 77f
10:50am 3.5ft 8s 5s 9
mph
1009.8mb 76f 77f
9:50am 3.5ft 7s 5s 13 16 mph 1009.6mb 76f 76f
7:50am 3.5ft 7s 5s 11 13 mph 1009.2mb 76f 76f
6:50am 3.5ft 7s 5s 11 13 mph 1008.4mb 76f 76f
5:50am 3.5ft 7s 5s 9 11 mph 1008.1mb 76f 76f
4:50am 3.5ft 7s 5s 7
mph
1007.7mb 76f 76f
3:50am 3.5ft 7s 5s 7 9 mph 1007.6mb 76f 76f
2:50am 3.5ft 7s 5s 4 7 mph 1007.4mb 76f 76f
1:50am 3.5ft 6s 5s 4
mph
1007.7mb 76f 76f
12:50am 3.5ft 6s 5s 4
mph
1007.7mb 76f 76f
Wed 04/27 11:50pm 4ft 6s 5s 4 7 mph 1007.7mb 76f 76f
10:50pm 4.5ft 7s 5s 7
mph
1007.5mb 76f 76f
9:50pm 4.5ft 7s 5s 9 11 mph 1007.1mb 76f 76f
8:50pm 3.5ft 7s 5s 11 13 mph 1006.5mb 76f 76f
7:50pm 4.5ft 7s 5s 9 11 mph 1005.9mb 76f 76f
6:50pm 4.5ft 7s 5s 9 11 mph 1005.5mb 76f 76f
5:50pm 4.5ft 7s 5s 13 16 mph 1005.6mb 76f 76f
4:50pm 5ft 6s 5s 11 16 mph 1005.6mb 76f 76f
3:50pm 5ft 7s 5s 13 16 mph 1005.9mb 76f 75f
2:50pm 5ft 7s 5s 18 20 mph 1005.9mb 76f 75f
1:50pm 5ft 7s 5s 20 25 mph 1006.3mb 76f 75f
12:50pm 4.5ft 7s 5s 20 22 mph 1007.2mb 76f 74f
11:50am 4.5ft 6s 5s 22 25 mph 1007.3mb 76f 73f
9:50am 4.5ft 6s 5s 13 20 mph 1006.6mb 76f 74f
8:50am 4.5ft 6s 5s 7 9 mph 1006.6mb 76f 77f
7:50am 4.5ft 6s 5s 25 27 mph 1002.8mb 76f 77f
6:50am 4.5ft 6s 5s 18 22 mph 1003.4mb 76f 76f
5:50am 4.5ft 6s 5s 11 13 mph 1004.2mb 76f 77f
4:50am 4.5ft 6s 5s 13 18 mph 1003.2mb 76f 77f
3:50am 5ft 6s 5s 18 20 mph 1002.4mb 76f 77f
2:50am 5ft 6s 5s 18 22 mph 1003mb 76f 77f
1:50am 4.5ft 5s 4s 18 20 mph 1003.8mb 76f 77f
12:50am 5ft 6s 5s 22 25 mph 1003.6mb 76f 77f
Tue 04/26 11:50pm 4.5ft 5s 4s 25 29 mph 1003.6mb 76f 76f
10:50pm 4.5ft 6s 5s 22 27 mph 1004.2mb 76f 76f
9:50pm 4.5ft 6s 4s 20 22 mph 1004.7mb 76f 76f
8:50pm 4.5ft 6s 4s 20 27 mph 1004.8mb 76f 76f
7:50pm 4.5ft 6s 4s 22 27 mph 1004.2mb 76f 76f
6:50pm 4ft 6s 4s 20 25 mph 1005mb 76f 76f
5:50pm 3.5ft 6s 4s 20 22 mph 1004.9mb 76f 76f
4:50pm 3.5ft 6s 4s 16 20 mph 1005.3mb 76f 76f
3:50pm 3.5ft 6s 5s 16 20 mph 1005.8mb 76f 76f
2:50pm 3.5ft 6s 4s 18 20 mph 1006.3mb 76f 76f
1:50pm 3.5ft 6s 4s 16 18 mph 1007mb 76f 76f
12:50pm 3.5ft 6s 5s 11 13 mph 1008.2mb 76f 76f
11:50am 3ft 5s 4s 11 13 mph 1008.6mb 76f 76f
10:50am 4ft 5s 5s 13 18 mph 1008.7mb 76f 76f